createdAt,value
2019-01-23T00:01:29.603Z,-8.10
2019-01-23T00:04:36.487Z,-8.20
2019-01-23T00:07:43.440Z,-8.40
2019-01-23T00:10:50.352Z,-8.59
2019-01-23T00:14:00.431Z,-8.56
2019-01-23T00:17:07.339Z,-8.73
2019-01-23T00:20:15.375Z,-8.84
2019-01-23T00:23:25.102Z,-9.33
2019-01-23T00:26:32.045Z,-8.93
2019-01-23T00:29:39.009Z,-8.85
2019-01-23T00:32:46.013Z,-8.98
2019-01-23T00:35:53.077Z,-9.10
2019-01-23T00:39:02.634Z,-9.15
2019-01-23T00:42:09.528Z,-8.99
2019-01-23T00:45:16.703Z,-9.21
2019-01-23T00:48:23.613Z,-9.28
2019-01-23T00:51:31.641Z,-9.10
2019-01-23T00:54:38.644Z,-10.02
2019-01-23T00:57:45.624Z,-9.86
2019-01-23T01:00:52.545Z,-9.47
2019-01-23T01:04:02.726Z,-9.53
2019-01-23T01:07:09.619Z,-9.34
2019-01-23T01:10:17.689Z,-9.84
2019-01-23T01:13:24.606Z,-9.47
2019-01-23T01:16:31.612Z,-9.55
2019-01-23T01:19:38.529Z,-10.72
2019-01-23T01:22:45.552Z,-10.20
2019-01-23T01:25:52.706Z,-9.80
2019-01-23T01:29:02.777Z,-10.43
2019-01-23T01:32:09.673Z,-9.66
2019-01-23T01:35:16.669Z,-9.62
2019-01-23T01:38:23.582Z,-9.76
2019-01-23T01:41:30.533Z,-9.76
2019-01-23T01:44:37.416Z,-9.75
2019-01-23T01:47:44.386Z,-10.27
2019-01-23T01:50:51.287Z,-10.88
2019-01-23T01:54:00.721Z,-11.12
2019-01-23T01:57:10.682Z,-10.36
2019-01-23T02:00:26.829Z,-11.00
2019-01-23T02:03:33.738Z,-11.37
2019-01-23T02:06:40.694Z,-11.73
2019-01-23T02:09:47.729Z,-11.12
2019-01-23T02:12:54.917Z,-10.91
2019-01-23T02:16:01.896Z,-11.51
2019-01-23T02:19:12.778Z,-10.39
2019-01-23T02:22:19.719Z,-10.39
2019-01-23T02:25:26.865Z,-10.28
2019-01-23T02:28:33.788Z,-10.39
2019-01-23T02:31:40.750Z,-10.10
2019-01-23T02:34:47.756Z,-10.77
2019-01-23T02:37:54.736Z,-11.21
2019-01-23T02:41:01.643Z,-11.24
2019-01-23T02:44:11.247Z,-10.97
2019-01-23T02:47:18.186Z,-10.58
2019-01-23T02:50:25.215Z,-10.44
2019-01-23T02:53:32.121Z,-10.31
2019-01-23T02:56:40.222Z,-10.30
2019-01-23T02:59:47.132Z,-10.11
2019-01-23T03:02:54.140Z,-10.43
2019-01-23T03:06:01.230Z,-10.96
2019-01-23T03:09:10.160Z,-11.03
2019-01-23T03:12:20.103Z,-11.51
2019-01-23T03:15:27.118Z,-11.21
2019-01-23T03:18:34.036Z,-10.78
2019-01-23T03:21:41.103Z,-12.13
2019-01-23T03:24:48.020Z,-11.27
2019-01-23T03:27:54.980Z,-11.97
2019-01-23T03:31:01.902Z,-10.98
2019-01-23T03:34:14.091Z,-10.97
2019-01-23T03:37:21.036Z,-10.77
2019-01-23T03:40:28.250Z,-10.54
2019-01-23T03:43:35.166Z,-10.56
2019-01-23T03:46:42.307Z,-10.56
2019-01-23T03:49:49.220Z,-10.66
2019-01-23T03:52:56.188Z,-10.55
2019-01-23T03:56:03.087Z,-10.62
2019-01-23T03:59:12.113Z,-10.63
2019-01-23T04:02:19.020Z,-11.50
2019-01-23T04:05:26.053Z,-11.23
2019-01-23T04:08:32.949Z,-11.73
2019-01-23T04:11:39.899Z,-11.12
2019-01-23T04:14:46.807Z,-11.06
2019-01-23T04:17:53.748Z,-11.37
2019-01-23T04:21:00.743Z,-11.31
2019-01-23T04:24:07.992Z,-11.24
2019-01-23T04:27:16.310Z,-11.72
2019-01-23T04:30:26.341Z,-11.79
2019-01-23T04:33:33.291Z,-11.26
2019-01-23T04:36:40.236Z,-11.03
2019-01-23T04:39:47.150Z,-11.02
2019-01-23T04:42:54.112Z,-10.97
2019-01-23T04:46:01.007Z,-10.75
2019-01-23T04:49:08.336Z,-10.98
2019-01-23T04:52:36.012Z,-10.63
2019-01-23T04:55:43.156Z,-10.40
2019-01-23T04:58:50.078Z,-10.77
2019-01-23T05:01:57.233Z,-11.01
2019-01-23T05:05:04.588Z,-10.75
2019-01-23T05:08:14.473Z,-11.13
2019-01-23T05:11:21.371Z,-11.63
2019-01-23T05:14:28.307Z,-11.50
2019-01-23T05:17:35.215Z,-10.93
2019-01-23T05:20:42.162Z,-10.93
2019-01-23T05:23:49.079Z,-10.97
2019-01-23T05:26:56.023Z,-11.18
2019-01-23T05:30:05.133Z,-11.40
2019-01-23T05:33:12.087Z,-11.44
2019-01-23T05:36:19.241Z,-11.09
2019-01-23T05:39:26.890Z,-11.20
2019-01-23T05:42:33.828Z,-11.27
2019-01-23T05:45:40.794Z,-11.52
2019-01-23T05:48:47.714Z,-11.36
2019-01-23T05:51:54.698Z,-11.99
2019-01-23T05:55:01.610Z,-11.85
2019-01-23T05:58:10.087Z,-11.67
2019-01-23T06:01:17.818Z,-11.36
2019-01-23T06:04:25.080Z,-11.89
2019-01-23T06:07:32.017Z,-11.86
2019-01-23T06:10:39.038Z,-11.48
2019-01-23T06:13:45.986Z,-11.36
2019-01-23T06:16:52.988Z,-11.27
2019-01-23T06:19:59.886Z,-11.16
2019-01-23T06:23:06.852Z,-12.03
2019-01-23T06:26:14.038Z,-12.03
2019-01-23T06:29:21.402Z,-11.98
2019-01-23T06:32:28.422Z,-11.73
2019-01-23T06:35:35.338Z,-11.46
2019-01-23T06:38:42.262Z,-12.04
2019-01-23T06:41:49.222Z,-11.98
2019-01-23T06:44:56.125Z,-11.47
2019-01-23T06:48:03.076Z,-11.98
2019-01-23T06:51:10.109Z,-11.86
2019-01-23T06:54:22.287Z,-11.92
2019-01-23T06:57:29.202Z,-11.55
2019-01-23T07:00:36.132Z,-11.33
2019-01-23T07:03:43.056Z,-11.06
2019-01-23T07:06:50.505Z,-11.41
2019-01-23T07:09:57.421Z,-11.84
2019-01-23T07:13:04.364Z,-11.30
2019-01-23T07:16:11.555Z,-11.62
2019-01-23T07:19:19.198Z,-11.66
2019-01-23T07:22:26.233Z,-11.38
2019-01-23T07:25:33.177Z,-11.61
2019-01-23T07:28:40.089Z,-12.00
2019-01-23T07:31:47.091Z,-11.61
2019-01-23T07:34:54.043Z,-11.30
2019-01-23T07:38:01.316Z,-11.25
2019-01-23T07:41:08.243Z,-10.83
2019-01-23T07:44:17.076Z,-10.97
2019-01-23T07:47:23.995Z,-11.08
2019-01-23T07:50:31.282Z,-11.27
2019-01-23T07:53:38.202Z,-11.03
2019-01-23T07:56:45.162Z,-10.85
2019-01-23T07:59:52.086Z,-10.78
2019-01-23T08:02:59.937Z,-10.62
2019-01-23T08:06:06.870Z,-10.69
2019-01-23T08:09:14.429Z,-10.40
2019-01-23T08:12:21.368Z,-10.34
2019-01-23T08:15:36.563Z,-10.27
2019-01-23T08:18:43.485Z,-10.38
2019-01-23T08:21:50.764Z,-10.32
2019-01-23T08:24:57.663Z,-9.96
2019-01-23T08:28:05.003Z,-10.05
2019-01-23T08:31:14.363Z,-9.98
2019-01-23T08:34:21.339Z,-9.89
2019-01-23T08:37:28.515Z,-9.71
2019-01-23T08:40:35.437Z,-9.81
2019-01-23T08:43:42.329Z,-9.59
2019-01-23T08:46:49.315Z,-9.46
2019-01-23T08:49:56.198Z,-9.42
2019-01-23T08:53:03.171Z,-9.43
2019-01-23T08:56:10.048Z,-9.37
2019-01-23T08:59:17.004Z,-9.20
2019-01-23T09:02:23.975Z,-9.25
2019-01-23T09:05:30.897Z,-9.15
2019-01-23T09:08:37.983Z,-9.06
2019-01-23T09:11:45.403Z,-9.05
2019-01-23T09:14:52.332Z,-9.01
2019-01-23T09:17:59.281Z,-8.90
2019-01-23T09:21:06.171Z,-8.91
2019-01-23T09:24:14.794Z,-8.58
2019-01-23T09:27:24.431Z,-8.68
2019-01-23T09:30:54.581Z,-8.79
2019-01-23T09:34:51.221Z,-8.67
2019-01-23T09:38:19.760Z,-8.41
2019-01-23T09:42:41.677Z,-8.46
2019-01-23T09:46:35.172Z,-8.39
2019-01-23T09:50:20.541Z,-8.07
2019-01-23T09:53:46.354Z,-7.90
2019-01-23T09:56:53.235Z,-7.85
2019-01-23T10:00:00.264Z,-7.75
2019-01-23T10:03:07.371Z,-7.85
2019-01-23T10:06:14.300Z,-7.93
2019-01-23T10:09:23.314Z,-7.56
2019-01-23T10:12:30.663Z,-7.59
2019-01-23T10:15:51.029Z,-7.57
2019-01-23T10:18:57.944Z,-7.56
2019-01-23T10:22:04.837Z,-7.41
2019-01-23T10:25:22.979Z,-7.28
2019-01-23T10:28:30.059Z,-7.35
2019-01-23T10:31:37.046Z,-7.30
2019-01-23T10:34:43.933Z,-7.09
2019-01-23T10:37:50.864Z,-6.89
2019-01-23T10:40:57.753Z,-6.93
2019-01-23T10:44:04.982Z,-6.80
2019-01-23T10:47:11.947Z,-6.76
2019-01-23T10:50:19.107Z,-6.67
2019-01-23T10:53:25.911Z,-6.70
2019-01-23T10:56:32.827Z,-6.57
2019-01-23T10:59:39.715Z,-6.53
2019-01-23T11:02:46.727Z,-6.47
2019-01-23T11:05:53.803Z,-6.39
2019-01-23T11:09:01.012Z,-6.43
2019-01-23T11:12:09.565Z,-6.36
2019-01-23T11:15:17.133Z,-6.28
2019-01-23T11:18:26.377Z,-6.23
2019-01-23T11:21:33.279Z,-6.13
2019-01-23T11:24:40.159Z,-6.24
2019-01-23T11:27:47.955Z,-6.11
2019-01-23T11:30:54.747Z,-6.11
2019-01-23T11:34:01.607Z,-5.86
2019-01-23T11:37:08.452Z,-5.78
2019-01-23T11:40:25.618Z,-5.67
2019-01-23T11:43:32.494Z,-5.60
2019-01-23T11:46:39.337Z,-5.61
2019-01-23T11:49:46.199Z,-5.53
2019-01-23T11:52:54.742Z,-5.55
2019-01-23T11:56:01.619Z,-5.35
2019-01-23T11:59:08.545Z,-5.44
2019-01-23T12:02:15.546Z,-5.36
2019-01-23T12:05:24.951Z,-5.22
2019-01-23T12:08:31.827Z,-5.15
2019-01-23T12:11:38.740Z,-4.88
2019-01-23T12:14:45.627Z,-4.55
2019-01-23T12:17:53.203Z,-4.67
2019-01-23T12:21:00.110Z,-4.25
2019-01-23T12:24:07.457Z,-4.72
2019-01-23T12:27:17.576Z,-4.17
2019-01-23T12:30:31.070Z,-4.33
2019-01-23T12:33:37.948Z,-4.55
2019-01-23T12:36:46.087Z,-4.44
2019-01-23T12:39:52.974Z,-4.74
2019-01-23T12:43:00.010Z,-4.23
2019-01-23T12:46:07.035Z,-4.25
2019-01-23T12:49:14.055Z,-4.52
2019-01-23T12:52:21.532Z,-4.68
2019-01-23T12:55:28.653Z,-4.66
2019-01-23T12:58:36.648Z,-4.49
2019-01-23T13:01:44.068Z,-4.61
2019-01-23T13:04:50.939Z,-4.64
2019-01-23T13:07:57.888Z,-4.28
2019-01-23T13:11:05.214Z,-3.90
2019-01-23T13:14:12.467Z,-4.58
2019-01-23T13:17:19.355Z,-4.42
2019-01-23T13:20:28.257Z,-4.00
2019-01-23T13:23:36.436Z,-4.07
2019-01-23T13:26:43.430Z,-3.87
2019-01-23T13:29:51.419Z,-3.93
2019-01-23T13:32:58.518Z,-4.10
2019-01-23T13:36:06.064Z,-3.74
2019-01-23T13:39:19.300Z,-3.98
2019-01-23T13:42:31.565Z,-3.90
2019-01-23T13:45:41.833Z,-4.16
2019-01-23T13:48:48.970Z,-4.05
2019-01-23T13:51:55.894Z,-3.94
2019-01-23T13:55:02.788Z,-3.97
2019-01-23T13:58:11.602Z,-3.88
2019-01-23T14:01:18.746Z,-3.87
2019-01-23T14:04:26.215Z,-3.80
2019-01-23T14:07:33.123Z,-3.95
2019-01-23T14:10:40.037Z,-4.16
2019-01-23T14:13:46.916Z,-4.06
2019-01-23T14:16:53.861Z,-4.03
2019-01-23T14:20:00.763Z,-3.91
2019-01-23T14:23:22.148Z,-4.01
2019-01-23T14:26:29.745Z,-4.19
2019-01-23T14:29:36.750Z,-4.20
2019-01-23T14:32:43.651Z,-4.14
2019-01-23T14:35:51.012Z,-4.28
2019-01-23T14:38:57.912Z,-4.11
2019-01-23T14:42:04.916Z,-4.37
2019-01-23T14:45:12.579Z,-4.48
2019-01-23T14:48:20.795Z,-4.36
2019-01-23T14:51:27.671Z,-5.00
2019-01-23T14:54:34.586Z,-4.43
2019-01-23T14:57:41.899Z,-4.47
2019-01-23T15:00:48.967Z,-4.62
2019-01-23T15:03:55.899Z,-4.99
2019-01-23T15:07:03.104Z,-5.46
2019-01-23T15:10:15.331Z,-5.14
2019-01-23T15:13:22.253Z,-4.89
2019-01-23T15:16:29.141Z,-5.40
2019-01-23T15:19:37.467Z,-5.25
2019-01-23T15:22:45.710Z,-5.07
2019-01-23T15:25:54.829Z,-5.38
2019-01-23T15:29:02.504Z,-5.51
2019-01-23T15:32:09.508Z,-5.90
2019-01-23T15:35:16.930Z,-5.48
2019-01-23T15:38:24.281Z,-5.56
2019-01-23T15:41:31.411Z,-5.68
2019-01-23T15:44:38.329Z,-5.43
2019-01-23T15:47:45.230Z,-5.60
2019-01-23T15:50:54.960Z,-5.45
2019-01-23T15:54:01.945Z,-5.35
2019-01-23T15:57:08.855Z,-5.41
2019-01-23T16:00:20.062Z,-5.41
2019-01-23T16:03:27.310Z,-5.36
2019-01-23T16:06:34.372Z,-5.36
2019-01-23T16:09:41.282Z,-5.40
2019-01-23T16:12:48.380Z,-5.34
2019-01-23T16:15:55.360Z,-5.43
2019-01-23T16:19:02.398Z,-5.52
2019-01-23T16:22:11.421Z,-5.38
2019-01-23T16:25:18.544Z,-5.60
2019-01-23T16:28:26.371Z,-5.66
2019-01-23T16:31:34.576Z,-6.24
2019-01-23T16:34:41.833Z,-6.34
2019-01-23T16:37:48.921Z,-5.98
2019-01-23T16:40:57.033Z,-6.25
2019-01-23T16:44:04.016Z,-6.24
2019-01-23T16:47:10.996Z,-6.71
2019-01-23T16:50:26.096Z,-6.32
2019-01-23T16:53:43.462Z,-6.20
2019-01-23T16:56:53.066Z,-6.42
2019-01-23T17:00:00.093Z,-6.68
2019-01-23T17:03:07.448Z,-6.47
2019-01-23T17:06:15.924Z,-6.62
2019-01-23T17:09:23.041Z,-6.24
2019-01-23T17:12:29.976Z,-6.37
2019-01-23T17:15:37.160Z,-6.27
2019-01-23T17:18:44.078Z,-6.32
2019-01-23T17:21:51.228Z,-6.62
2019-01-23T17:24:59.271Z,-6.83
2019-01-23T17:28:08.594Z,-6.54
2019-01-23T17:31:24.056Z,-7.00
2019-01-23T17:34:33.512Z,-6.66
2019-01-23T17:37:45.373Z,-6.55
2019-01-23T17:40:54.458Z,-6.67
2019-01-23T17:44:02.892Z,-6.47
2019-01-23T17:47:11.610Z,-6.34
2019-01-23T17:50:21.679Z,-6.54
2019-01-23T17:53:30.517Z,-6.20
2019-01-23T17:56:41.469Z,-6.65
2019-01-23T18:00:10.095Z,-7.26
2019-01-23T18:03:18.722Z,-6.99
2019-01-23T18:06:27.368Z,-7.28
2019-01-23T18:09:35.620Z,-7.37
2019-01-23T18:12:44.167Z,-7.59
2019-01-23T18:15:51.330Z,-7.42
2019-01-23T18:18:58.313Z,-7.18
2019-01-23T18:22:05.811Z,-7.71
2019-01-23T18:25:13.883Z,-7.60
2019-01-23T18:28:20.848Z,-7.29
2019-01-23T18:32:04.548Z,-7.41
2019-01-23T18:35:43.485Z,-7.24
2019-01-23T18:39:30.664Z,-7.05
2019-01-23T18:43:32.596Z,-7.13
2019-01-23T18:47:22.636Z,-7.27
2019-01-23T18:51:12.572Z,-7.24
2019-01-23T18:54:19.448Z,-7.25
2019-01-23T18:57:28.757Z,-7.43
2019-01-23T19:00:35.880Z,-7.48
2019-01-23T19:03:43.799Z,-7.49
2019-01-23T19:06:51.990Z,-7.48
2019-01-23T19:09:58.964Z,-7.48
2019-01-23T19:13:06.068Z,-7.56
2019-01-23T19:16:13.402Z,-7.51
2019-01-23T19:19:20.280Z,-7.62
2019-01-23T19:22:28.278Z,-7.48
2019-01-23T19:25:35.244Z,-7.53
2019-01-23T19:28:43.201Z,-7.56
2019-01-23T19:31:51.756Z,-7.60
2019-01-23T19:34:58.738Z,-7.51
2019-01-23T19:38:06.119Z,-7.56
2019-01-23T19:41:12.976Z,-7.65
2019-01-23T19:44:19.945Z,-7.65
2019-01-23T19:47:26.867Z,-7.58
2019-01-23T19:50:33.935Z,-7.64
2019-01-23T19:53:41.068Z,-7.63
2019-01-23T19:56:48.139Z,-7.72
2019-01-23T19:59:55.039Z,-7.64
2019-01-23T20:03:01.992Z,-7.63
2019-01-23T20:06:08.908Z,-7.71
2019-01-23T20:09:15.993Z,-7.79
2019-01-23T20:12:22.918Z,-7.75
2019-01-23T20:15:29.823Z,-7.88
2019-01-23T20:18:36.975Z,-7.87
2019-01-23T20:21:43.894Z,-8.03
2019-01-23T20:24:51.026Z,-7.96
2019-01-23T20:27:58.008Z,-7.87
2019-01-23T20:31:04.932Z,-7.88
2019-01-23T20:34:12.150Z,-7.91
2019-01-23T20:37:23.373Z,-7.95
2019-01-23T20:40:27.847Z,-7.96
2019-01-23T20:43:38.160Z,-7.79
2019-01-23T20:46:47.694Z,-7.84
2019-01-23T20:49:55.743Z,-7.77
2019-01-23T20:53:02.741Z,-7.81
2019-01-23T20:56:09.656Z,-7.87
2019-01-23T20:59:16.692Z,-7.71
2019-01-23T21:02:23.656Z,-7.80
2019-01-23T21:05:30.611Z,-7.86
2019-01-23T21:08:37.988Z,-7.81
2019-01-23T21:11:44.856Z,-7.84
2019-01-23T21:14:51.860Z,-7.82
2019-01-23T21:17:58.761Z,-7.76
2019-01-23T21:21:05.715Z,-7.70
2019-01-23T21:24:12.588Z,-7.55
2019-01-23T21:27:19.436Z,-7.53
2019-01-23T21:30:27.831Z,-7.48
2019-01-23T21:33:42.097Z,-7.49
2019-01-23T21:36:46.558Z,-7.48
2019-01-23T21:39:53.388Z,-7.47
2019-01-23T21:43:02.978Z,-7.43
2019-01-23T21:46:09.883Z,-7.45
2019-01-23T21:49:16.742Z,-7.45
2019-01-23T21:52:23.669Z,-7.31
2019-01-23T21:55:30.562Z,-7.38
2019-01-23T21:58:37.644Z,-7.39
2019-01-23T22:01:44.747Z,-7.36
2019-01-23T22:04:51.673Z,-7.36
2019-01-23T22:07:58.710Z,-7.30
2019-01-23T22:11:05.731Z,-7.26
2019-01-23T22:14:12.645Z,-7.21
2019-01-23T22:17:19.492Z,-7.26
2019-01-23T22:20:26.594Z,-7.28
2019-01-23T22:23:35.659Z,-7.21
2019-01-23T22:26:42.702Z,-7.25
2019-01-23T22:29:49.876Z,-7.10
2019-01-23T22:32:56.747Z,-7.18
2019-01-23T22:36:03.651Z,-7.45
2019-01-23T22:39:11.030Z,-7.42
2019-01-23T22:42:17.925Z,-7.35
2019-01-23T22:45:24.808Z,-7.28
2019-01-23T22:48:31.743Z,-7.27
2019-01-23T22:51:38.662Z,-7.24
2019-01-23T22:54:45.599Z,-7.14
2019-01-23T22:57:54.548Z,-7.19
2019-01-23T23:01:33.728Z,-7.06
2019-01-23T23:04:41.815Z,-7.07
2019-01-23T23:07:49.162Z,-6.97
2019-01-23T23:10:58.905Z,-7.09
2019-01-23T23:14:06.536Z,-7.24
2019-01-23T23:17:13.418Z,-7.16
2019-01-23T23:20:20.332Z,-7.13
2019-01-23T23:23:27.211Z,-6.92
2019-01-23T23:26:34.148Z,-7.23
2019-01-23T23:29:41.021Z,-7.21
2019-01-23T23:32:49.492Z,-7.11
2019-01-23T23:35:57.646Z,-7.18
2019-01-23T23:39:06.654Z,-7.28
2019-01-23T23:42:13.886Z,-7.29
2019-01-23T23:45:20.958Z,-7.08
2019-01-23T23:48:27.749Z,-6.89
2019-01-23T23:51:34.658Z,-7.18
2019-01-23T23:54:41.536Z,-7.31
2019-01-23T23:57:48.815Z,-6.98
